Daio — JG5587 — position and weather

sailwx.info

Track history (hours):
 
Tides and Currents Weather Stations Pressure Air Temp Water Temp Dewpoint Dewpoint Depression Visibility Wind Speed Wind Dir Waves Ship Positions

Daio

Last reported at 2014-Jul-29 04:33 UTC. Time now 2014-Jul-29 04:43 UTC.
Position N 35°38' E 139°60'.

Length 36 m; draft 3.4 m.

Type: Tug. MMSI: 431003092.

Date/timePositionNaut miles runAvg speedWind from/ knotsBaromVisibWave heightAir tempDewpointWater temp
2014-Jul-29 04:33N 35°38' E 139°60'8 8.0
2014-Jul-29 03:34N 35°30' E 140°01'0 0.1
2014-Jul-29 02:34N 35°30' E 140°01'1 1.4
2014-Jul-29 01:34N 35°31' E 140°00'0 0.3
2014-Jul-29 00:33N 35°31' E 139°60'5 4.7
2014-Jul-28 23:33N 35°33' E 140°05'3 2.7
2014-Jul-28 22:33N 35°35' E 140°06'1 0.8
2014-Jul-28 21:33N 35°36' E 140°07'0 0.0
2014-Jul-28 20:33N 35°36' E 140°07'0 0.0
2014-Jul-28 19:33N 35°36' E 140°07'0 0.0
2014-Jul-28 18:33N 35°36' E 140°07'0 0.0
2014-Jul-28 17:33N 35°36' E 140°07'0 0.0
2014-Jul-28 16:33N 35°36' E 140°07'0 0.0
2014-Jul-28 15:33N 35°36' E 140°07'0 0.0
2014-Jul-28 14:33N 35°36' E 140°07'0 0.0
2014-Jul-28 13:33N 35°36' E 140°07'0 0.0
2014-Jul-28 12:33N 35°36' E 140°07'0 0.0
2014-Jul-28 11:33N 35°36' E 140°07'0 0.0
2014-Jul-28 10:33N 35°36' E 140°07'0 0.0
2014-Jul-28 09:33N 35°36' E 140°07'1 0.6
2014-Jul-28 08:33N 35°35' E 140°06'5 5.5
2014-Jul-28 07:33N 35°31' E 140°02'1 0.6
2014-Jul-28 06:33N 35°31' E 140°02'1 0.6
2014-Jul-28 05:33N 35°31' E 140°01'1 1.4
2014-Jul-28 04:33N 35°32' E 140°02'5 4.7
2014-Jul-28 03:33N 35°36' E 140°05'2 1.6
2014-Jul-28 02:33N 35°35' E 140°04'0 0.0
2014-Jul-28 01:33N 35°35' E 140°04'0 0.0
2014-Jul-28 00:33N 35°35' E 140°04'0 0.0
2014-Jul-27 23:33N 35°35' E 140°04'1 1.1
2014-Jul-27 22:34N 35°36' E 140°05'1 1.1
2014-Jul-27 21:33N 35°35' E 140°04'0 0.0
2014-Jul-27 20:33N 35°35' E 140°04'2 2.3
2014-Jul-27 19:33N 35°36' E 140°07'0 0.0
2014-Jul-27 18:33N 35°36' E 140°07'0 0.0
2014-Jul-27 17:33N 35°36' E 140°07'0 0.0
2014-Jul-27 16:33N 35°36' E 140°07'0 0.0
2014-Jul-27 15:33N 35°36' E 140°07'0 0.0
2014-Jul-27 14:33N 35°36' E 140°07'0 0.0
2014-Jul-27 13:33N 35°36' E 140°07'0 0.0
2014-Jul-27 12:33N 35°36' E 140°07'0 0.0
2014-Jul-27 11:33N 35°36' E 140°07'0 0.0
2014-Jul-27 10:33N 35°36' E 140°07'0 0.0
2014-Jul-27 09:33N 35°36' E 140°07'0 0.0
2014-Jul-27 08:33N 35°36' E 140°07'0 0.0
2014-Jul-27 07:33N 35°36' E 140°07'0 0.0
2014-Jul-27 06:33N 35°36' E 140°07'0 0.0
2014-Jul-27 05:33N 35°36' E 140°07'0 0.0
2014-Jul-27 04:33N 35°36' E 140°07'0 0.0
2014-Jul-27 03:33N 35°36' E 140°07'0 0.0
2014-Jul-27 02:33N 35°36' E 140°07'0 0.0
2014-Jul-27 01:33N 35°36' E 140°07'0 0.0
2014-Jul-27 00:33N 35°36' E 140°07'0 0.0
2014-Jul-26 23:33N 35°36' E 140°07'0 0.0
2014-Jul-26 22:33N 35°36' E 140°07'0 0.0
2014-Jul-26 21:33N 35°36' E 140°07'0 0.0
2014-Jul-26 20:33N 35°36' E 140°07'0 0.0
2014-Jul-26 19:33N 35°36' E 140°07'0 0.0
2014-Jul-26 18:33N 35°36' E 140°07'0 0.0
2014-Jul-26 17:33N 35°36' E 140°07'0 0.0
2014-Jul-26 16:33N 35°36' E 140°07'0 0.0
2014-Jul-26 15:33N 35°36' E 140°07'0 0.0
2014-Jul-26 14:33N 35°36' E 140°07'0 0.0
2014-Jul-26 13:33N 35°36' E 140°07'0 0.0
2014-Jul-26 12:33N 35°36' E 140°07'0 0.0
2014-Jul-26 11:33N 35°36' E 140°07'0 0.0
2014-Jul-26 10:33N 35°36' E 140°07'0 0.0
2014-Jul-26 09:33N 35°36' E 140°07'0 0.0
2014-Jul-26 08:33N 35°36' E 140°07'0 0.0
2014-Jul-26 07:33N 35°36' E 140°07'0 0.0
2014-Jul-26 06:33N 35°36' E 140°07'0 0.1
2014-Jul-26 05:33N 35°36' E 140°07'1 1.4
2014-Jul-26 04:33N 35°36' E 140°05'1 0.8
2014-Jul-26 03:33N 35°35' E 140°04'4 3.9
2014-Jul-26 02:33N 35°32' E 140°02'3 3.3
2014-Jul-26 01:33N 35°29' E 140°00'2 1.5
2014-Jul-26 00:33N 35°30' E 139°59'0 0.2
2014-Jul-25 23:33N 35°30' E 139°59'3 2.6
2014-Jul-25 22:33N 35°31' E 140°02'4 4.2
2014-Jul-25 21:33N 35°35' E 140°04'2 2.1
2014-Jul-25 20:33N 35°36' E 140°07'0 0.0
2014-Jul-25 19:33N 35°36' E 140°07'0 0.0
2014-Jul-25 18:33N 35°36' E 140°07'0 0.0
2014-Jul-25 17:34N 35°36' E 140°07'0 0.0
2014-Jul-25 16:33N 35°36' E 140°07'0 0.0
2014-Jul-25 15:33N 35°36' E 140°07'0 0.0
2014-Jul-25 14:34N 35°36' E 140°07'0 0.0
2014-Jul-25 13:33N 35°36' E 140°07'0 0.0
2014-Jul-25 12:33N 35°36' E 140°07'0 0.0
2014-Jul-25 11:33N 35°36' E 140°07'0 0.0
2014-Jul-25 10:33N 35°36' E 140°07'0 0.0
2014-Jul-25 09:33N 35°36' E 140°07'0 0.0
2014-Jul-25 08:34N 35°36' E 140°07'0 0.0
2014-Jul-25 07:34N 35°36' E 140°07'4 3.6
2014-Jul-25 06:33N 35°34' E 140°03'7 7.4
2014-Jul-25 05:33N 35°28' E 139°58'1 1.0
2014-Jul-25 04:34N 35°29' E 139°57'0 0.0
2014-Jul-25 03:34N 35°29' E 139°57'2 2.3
2014-Jul-25 02:33N 35°31' E 139°56'1 1.1
2014-Jul-25 01:34N 35°31' E 139°57'0 0.0
2014-Jul-25 00:33N 35°31' E 139°57'0 0.0
2014-Jul-24 23:33N 35°31' E 139°57'9 9.0
2014-Jul-24 22:34N 35°36' E 140°07'5 4.7
2014-Jul-24 21:33N 35°32' E 140°03'5 4.8
2014-Jul-24 20:33N 35°36' E 140°07'0 0.0
2014-Jul-24 19:33N 35°36' E 140°07'0 0.0
2014-Jul-24 18:33N 35°36' E 140°07'0 0.0
2014-Jul-24 17:33N 35°36' E 140°07'0 0.0
2014-Jul-24 16:33N 35°36' E 140°07'0 0.0
2014-Jul-24 15:33N 35°36' E 140°07'0 0.0
2014-Jul-24 14:33N 35°36' E 140°07'0 0.0
2014-Jul-24 13:33N 35°36' E 140°07'0 0.0
2014-Jul-24 12:34N 35°36' E 140°07'0 0.0
2014-Jul-24 11:34N 35°36' E 140°07'0 0.0
2014-Jul-24 10:33N 35°36' E 140°07'0 0.0
2014-Jul-24 09:33N 35°36' E 140°07'0 0.0
2014-Jul-24 08:33N 35°36' E 140°07'0 0.0
2014-Jul-24 07:33N 35°36' E 140°07'0 0.2
2014-Jul-24 06:33N 35°36' E 140°07'0 0.2
2014-Jul-24 05:34N 35°36' E 140°07'0 0.0
2014-Jul-24 04:34N 35°36' E 140°07'0 0.0
2014-Jul-24 03:33N 35°36' E 140°07'0 0.0
2014-Jul-24 02:33N 35°36' E 140°07'1010.2
2014-Jul-24 01:34N 35°31' E 139°56'0 0.5
2014-Jul-24 00:34N 35°31' E 139°56'1010.2
2014-Jul-23 23:34N 35°36' E 140°07'0 0.1
2014-Jul-23 22:33N 35°36' E 140°07'0 0.0
2014-Jul-23 21:33N 35°36' E 140°07'0 0.0
2014-Jul-23 20:33N 35°36' E 140°07'0 0.0
2014-Jul-23 19:33N 35°36' E 140°07'0 0.0
2014-Jul-23 18:33N 35°36' E 140°07'0 0.0
2014-Jul-23 17:33N 35°36' E 140°07'0 0.0
2014-Jul-23 16:33N 35°36' E 140°07'0 0.0
2014-Jul-23 15:33N 35°36' E 140°07'0 0.0
2014-Jul-23 14:33N 35°36' E 140°07'0 0.0
2014-Jul-23 13:33N 35°36' E 140°07'0 0.0
2014-Jul-23 12:33N 35°36' E 140°07'0 0.0
2014-Jul-23 11:33N 35°36' E 140°07'0 0.0
2014-Jul-23 10:33N 35°36' E 140°07'0 0.0
2014-Jul-23 09:33N 35°36' E 140°07'1 1.0
2014-Jul-23 08:33N 35°35' E 140°06'3 3.2
2014-Jul-23 07:33N 35°32' E 140°06'4 4.1
2014-Jul-23 06:33N 35°30' E 140°01'1 0.7
2014-Jul-23 05:33N 35°30' E 140°01'0 0.1
2014-Jul-23 04:33N 35°30' E 140°01'0 0.0
2014-Jul-23 03:33N 35°30' E 140°01'0 0.0
2014-Jul-23 02:33N 35°30' E 140°01'0 0.0
2014-Jul-23 01:33N 35°30' E 140°01'0 0.0
2014-Jul-23 00:33N 35°30' E 140°01'1 1.1
2014-Jul-22 23:34N 35°29' E 140°01'8 8.4
2014-Jul-22 22:33N 35°36' E 140°07'0 0.0
2014-Jul-22 21:33N 35°36' E 140°07'0 0.0
2014-Jul-22 20:33N 35°36' E 140°07'0 0.0
2014-Jul-22 19:33N 35°36' E 140°07'0 0.0
2014-Jul-22 18:33N 35°36' E 140°07'0 0.0
2014-Jul-22 17:33N 35°36' E 140°07'0 0.0
2014-Jul-22 16:33N 35°36' E 140°07'0 0.0
2014-Jul-22 15:33N 35°36' E 140°07'0 0.0
2014-Jul-22 14:33N 35°36' E 140°07'0 0.0
2014-Jul-22 13:33N 35°36' E 140°07'0 0.0
2014-Jul-22 12:33N 35°36' E 140°07'0 0.0
2014-Jul-22 11:33N 35°36' E 140°07'0 0.0
2014-Jul-22 10:33N 35°36' E 140°07'0 0.0
2014-Jul-22 09:33N 35°36' E 140°07'0 0.0
2014-Jul-22 08:33N 35°36' E 140°07'0 0.0
2014-Jul-22 07:33N 35°36' E 140°07'0 0.0
2014-Jul-22 06:33N 35°36' E 140°07'0 0.0
2014-Jul-22 05:33N 35°36' E 140°07'0 0.0
2014-Jul-22 04:33N 35°36' E 140°07'8 7.7
2014-Jul-22 03:33N 35°32' E 139°58'2 2.4
2014-Jul-22 02:33N 35°31' E 139°56'0 0.2
2014-Jul-22 01:33N 35°31' E 139°56'2 2.1
2014-Jul-22 00:33N 35°29' E 139°54'1110.8
2014-Jul-21 23:33N 35°35' E 140°05'2 0.1
2014-Jul-21 07:14N 35°36' E 140°07'0 0.0
2014-Jul-21 06:33N 35°36' E 140°07'0 0.0
2014-Jul-21 05:33N 35°36' E 140°07'0 0.0
2014-Jul-21 04:33N 35°36' E 140°07'0 0.0
2014-Jul-21 03:33N 35°36' E 140°07'0 0.0
2014-Jul-21 02:33N 35°36' E 140°07'0 0.0
2014-Jul-21 01:33N 35°36' E 140°07'8 8.4
2014-Jul-21 00:33N 35°30' E 139°59'2 2.2
2014-Jul-20 23:33N 35°28' E 139°58'10 9.7
2014-Jul-20 22:33N 35°36' E 140°06'1 0.7
2014-Jul-20 21:33N 35°36' E 140°07'0 0.0
2014-Jul-20 20:33N 35°36' E 140°07'0 0.0
2014-Jul-20 19:33N 35°36' E 140°07'0 0.0
2014-Jul-20 18:34N 35°36' E 140°07'0 0.0
2014-Jul-20 17:33N 35°36' E 140°07'0 0.0
2014-Jul-20 16:33N 35°36' E 140°07'0 0.0
2014-Jul-20 15:33N 35°36' E 140°07'0 0.0
2014-Jul-20 14:33N 35°36' E 140°07'0 0.0
2014-Jul-20 13:33N 35°36' E 140°07'0 0.0
2014-Jul-20 12:33N 35°36' E 140°07'0 0.0
2014-Jul-20 11:33N 35°36' E 140°07'0 0.0
2014-Jul-20 10:33N 35°36' E 140°07'0 0.0
2014-Jul-20 09:33N 35°36' E 140°07'0 0.0
2014-Jul-20 08:33N 35°36' E 140°07'0 0.0
2014-Jul-20 07:33N 35°36' E 140°07'0 0.0
2014-Jul-20 06:33N 35°36' E 140°07'5 4.9
2014-Jul-20 05:33N 35°32' E 140°03'1 0.6
2014-Jul-20 04:33N 35°32' E 140°03'0 0.0
2014-Jul-20 03:33N 35°32' E 140°03'0 0.0
2014-Jul-20 02:33N 35°32' E 140°03'5 5.1
2014-Jul-20 01:33N 35°28' E 139°58'1 0.8
2014-Jul-20 00:33N 35°29' E 139°57'1 1.4
2014-Jul-19 23:33N 35°30' E 139°56'9 9.2
2014-Jul-19 22:33N 35°35' E 140°05'2 1.7
2014-Jul-19 21:34N 35°36' E 140°07'0 0.0
2014-Jul-19 20:34N 35°36' E 140°07'0 0.0
2014-Jul-19 19:33N 35°36' E 140°07'0 0.0
2014-Jul-19 18:33N 35°36' E 140°07'0 0.0
2014-Jul-19 17:33N 35°36' E 140°07'0 0.0
2014-Jul-19 16:33N 35°36' E 140°07'0 0.0
2014-Jul-19 15:33N 35°36' E 140°07'0 0.0
2014-Jul-19 14:33N 35°36' E 140°07'0 0.0
2014-Jul-19 13:33N 35°36' E 140°07'0 0.0
2014-Jul-19 12:33N 35°36' E 140°07'0 0.0
2014-Jul-19 11:33N 35°36' E 140°07'0 0.0
2014-Jul-19 10:33N 35°36' E 140°07'0 0.0
2014-Jul-19 09:34N 35°36' E 140°07'0 0.0
2014-Jul-19 08:33N 35°36' E 140°07'0 0.0
2014-Jul-19 07:33N 35°36' E 140°07'1 0.9
2014-Jul-19 06:33N 35°35' E 140°07'2 2.1
2014-Jul-19 05:33N 35°35' E 140°04'  
Track history (hours):
 
Tides and Currents Weather Stations Pressure Air Temp Water Temp Dewpoint Dewpoint Depression Visibility Wind Speed Wind Dir Waves Ship Positions

Daio

Last reported at 2014-Jul-29 04:33 UTC. Time now 2014-Jul-29 04:43 UTC.
Position N 35°38' E 139°60'.

Length 36 m; draft 3.4 m.

Type: Tug. MMSI: 431003092.

Date/timePositionNaut miles runAvg speedWind from/ knotsBaromVisibWave heightAir tempDewpointWater temp
2014-Jul-29 04:33N 35°38' E 139°60'8 8.0
2014-Jul-29 03:34N 35°30' E 140°01'0 0.1
2014-Jul-29 02:34N 35°30' E 140°01'1 1.4
2014-Jul-29 01:34N 35°31' E 140°00'0 0.3
2014-Jul-29 00:33N 35°31' E 139°60'5 4.7
2014-Jul-28 23:33N 35°33' E 140°05'3 2.7
2014-Jul-28 22:33N 35°35' E 140°06'1 0.8
2014-Jul-28 21:33N 35°36' E 140°07'0 0.0
2014-Jul-28 20:33N 35°36' E 140°07'0 0.0
2014-Jul-28 19:33N 35°36' E 140°07'0 0.0
2014-Jul-28 18:33N 35°36' E 140°07'0 0.0
2014-Jul-28 17:33N 35°36' E 140°07'0 0.0
2014-Jul-28 16:33N 35°36' E 140°07'0 0.0
2014-Jul-28 15:33N 35°36' E 140°07'0 0.0
2014-Jul-28 14:33N 35°36' E 140°07'0 0.0
2014-Jul-28 13:33N 35°36' E 140°07'0 0.0
2014-Jul-28 12:33N 35°36' E 140°07'0 0.0
2014-Jul-28 11:33N 35°36' E 140°07'0 0.0
2014-Jul-28 10:33N 35°36' E 140°07'0 0.0
2014-Jul-28 09:33N 35°36' E 140°07'1 0.6
2014-Jul-28 08:33N 35°35' E 140°06'5 5.5
2014-Jul-28 07:33N 35°31' E 140°02'1 0.6
2014-Jul-28 06:33N 35°31' E 140°02'1 0.6
2014-Jul-28 05:33N 35°31' E 140°01'1 1.4
2014-Jul-28 04:33N 35°32' E 140°02'5 4.7
2014-Jul-28 03:33N 35°36' E 140°05'2 1.6
2014-Jul-28 02:33N 35°35' E 140°04'0 0.0
2014-Jul-28 01:33N 35°35' E 140°04'0 0.0
2014-Jul-28 00:33N 35°35' E 140°04'0 0.0
2014-Jul-27 23:33N 35°35' E 140°04'1 1.1
2014-Jul-27 22:34N 35°36' E 140°05'1 1.1
2014-Jul-27 21:33N 35°35' E 140°04'0 0.0
2014-Jul-27 20:33N 35°35' E 140°04'2 2.3
2014-Jul-27 19:33N 35°36' E 140°07'0 0.0
2014-Jul-27 18:33N 35°36' E 140°07'0 0.0
2014-Jul-27 17:33N 35°36' E 140°07'0 0.0
2014-Jul-27 16:33N 35°36' E 140°07'0 0.0
2014-Jul-27 15:33N 35°36' E 140°07'0 0.0
2014-Jul-27 14:33N 35°36' E 140°07'0 0.0
2014-Jul-27 13:33N 35°36' E 140°07'0 0.0
2014-Jul-27 12:33N 35°36' E 140°07'0 0.0
2014-Jul-27 11:33N 35°36' E 140°07'0 0.0
2014-Jul-27 10:33N 35°36' E 140°07'0 0.0
2014-Jul-27 09:33N 35°36' E 140°07'0 0.0
2014-Jul-27 08:33N 35°36' E 140°07'0 0.0
2014-Jul-27 07:33N 35°36' E 140°07'0 0.0
2014-Jul-27 06:33N 35°36' E 140°07'0 0.0
2014-Jul-27 05:33N 35°36' E 140°07'0 0.0
2014-Jul-27 04:33N 35°36' E 140°07'0 0.0
2014-Jul-27 03:33N 35°36' E 140°07'0 0.0
2014-Jul-27 02:33N 35°36' E 140°07'0 0.0
2014-Jul-27 01:33N 35°36' E 140°07'0 0.0
2014-Jul-27 00:33N 35°36' E 140°07'0 0.0
2014-Jul-26 23:33N 35°36' E 140°07'0 0.0
2014-Jul-26 22:33N 35°36' E 140°07'0 0.0
2014-Jul-26 21:33N 35°36' E 140°07'0 0.0
2014-Jul-26 20:33N 35°36' E 140°07'0 0.0
2014-Jul-26 19:33N 35°36' E 140°07'0 0.0
2014-Jul-26 18:33N 35°36' E 140°07'0 0.0
2014-Jul-26 17:33N 35°36' E 140°07'0 0.0
2014-Jul-26 16:33N 35°36' E 140°07'0 0.0
2014-Jul-26 15:33N 35°36' E 140°07'0 0.0
2014-Jul-26 14:33N 35°36' E 140°07'0 0.0
2014-Jul-26 13:33N 35°36' E 140°07'0 0.0
2014-Jul-26 12:33N 35°36' E 140°07'0 0.0
2014-Jul-26 11:33N 35°36' E 140°07'0 0.0
2014-Jul-26 10:33N 35°36' E 140°07'0 0.0
2014-Jul-26 09:33N 35°36' E 140°07'0 0.0
2014-Jul-26 08:33N 35°36' E 140°07'0 0.0
2014-Jul-26 07:33N 35°36' E 140°07'0 0.0
2014-Jul-26 06:33N 35°36' E 140°07'0 0.1
2014-Jul-26 05:33N 35°36' E 140°07'1 1.4
2014-Jul-26 04:33N 35°36' E 140°05'1 0.8
2014-Jul-26 03:33N 35°35' E 140°04'4 3.9
2014-Jul-26 02:33N 35°32' E 140°02'3 3.3
2014-Jul-26 01:33N 35°29' E 140°00'2 1.5
2014-Jul-26 00:33N 35°30' E 139°59'0 0.2
2014-Jul-25 23:33N 35°30' E 139°59'3 2.6
2014-Jul-25 22:33N 35°31' E 140°02'4 4.2
2014-Jul-25 21:33N 35°35' E 140°04'2 2.1
2014-Jul-25 20:33N 35°36' E 140°07'0 0.0
2014-Jul-25 19:33N 35°36' E 140°07'0 0.0
2014-Jul-25 18:33N 35°36' E 140°07'0 0.0
2014-Jul-25 17:34N 35°36' E 140°07'0 0.0
2014-Jul-25 16:33N 35°36' E 140°07'0 0.0
2014-Jul-25 15:33N 35°36' E 140°07'0 0.0
2014-Jul-25 14:34N 35°36' E 140°07'0 0.0
2014-Jul-25 13:33N 35°36' E 140°07'0 0.0
2014-Jul-25 12:33N 35°36' E 140°07'0 0.0
2014-Jul-25 11:33N 35°36' E 140°07'0 0.0
2014-Jul-25 10:33N 35°36' E 140°07'0 0.0
2014-Jul-25 09:33N 35°36' E 140°07'0 0.0
2014-Jul-25 08:34N 35°36' E 140°07'0 0.0
2014-Jul-25 07:34N 35°36' E 140°07'4 3.6
2014-Jul-25 06:33N 35°34' E 140°03'7 7.4
2014-Jul-25 05:33N 35°28' E 139°58'1 1.0
2014-Jul-25 04:34N 35°29' E 139°57'0 0.0
2014-Jul-25 03:34N 35°29' E 139°57'2 2.3
2014-Jul-25 02:33N 35°31' E 139°56'1 1.1
2014-Jul-25 01:34N 35°31' E 139°57'0 0.0
2014-Jul-25 00:33N 35°31' E 139°57'0 0.0
2014-Jul-24 23:33N 35°31' E 139°57'9 9.0
2014-Jul-24 22:34N 35°36' E 140°07'5 4.7
2014-Jul-24 21:33N 35°32' E 140°03'5 4.8
2014-Jul-24 20:33N 35°36' E 140°07'0 0.0
2014-Jul-24 19:33N 35°36' E 140°07'0 0.0
2014-Jul-24 18:33N 35°36' E 140°07'0 0.0
2014-Jul-24 17:33N 35°36' E 140°07'0 0.0
2014-Jul-24 16:33N 35°36' E 140°07'0 0.0
2014-Jul-24 15:33N 35°36' E 140°07'0 0.0
2014-Jul-24 14:33N 35°36' E 140°07'0 0.0
2014-Jul-24 13:33N 35°36' E 140°07'0 0.0
2014-Jul-24 12:34N 35°36' E 140°07'0 0.0
2014-Jul-24 11:34N 35°36' E 140°07'0 0.0
2014-Jul-24 10:33N 35°36' E 140°07'0 0.0
2014-Jul-24 09:33N 35°36' E 140°07'0 0.0
2014-Jul-24 08:33N 35°36' E 140°07'0 0.0
2014-Jul-24 07:33N 35°36' E 140°07'0 0.2
2014-Jul-24 06:33N 35°36' E 140°07'0 0.2
2014-Jul-24 05:34N 35°36' E 140°07'0 0.0
2014-Jul-24 04:34N 35°36' E 140°07'0 0.0
2014-Jul-24 03:33N 35°36' E 140°07'0 0.0
2014-Jul-24 02:33N 35°36' E 140°07'1010.2
2014-Jul-24 01:34N 35°31' E 139°56'0 0.5
2014-Jul-24 00:34N 35°31' E 139°56'1010.2
2014-Jul-23 23:34N 35°36' E 140°07'0 0.1
2014-Jul-23 22:33N 35°36' E 140°07'0 0.0
2014-Jul-23 21:33N 35°36' E 140°07'0 0.0
2014-Jul-23 20:33N 35°36' E 140°07'0 0.0
2014-Jul-23 19:33N 35°36' E 140°07'0 0.0
2014-Jul-23 18:33N 35°36' E 140°07'0 0.0
2014-Jul-23 17:33N 35°36' E 140°07'0 0.0
2014-Jul-23 16:33N 35°36' E 140°07'0 0.0
2014-Jul-23 15:33N 35°36' E 140°07'0 0.0
2014-Jul-23 14:33N 35°36' E 140°07'0 0.0
2014-Jul-23 13:33N 35°36' E 140°07'0 0.0
2014-Jul-23 12:33N 35°36' E 140°07'0 0.0
2014-Jul-23 11:33N 35°36' E 140°07'0 0.0
2014-Jul-23 10:33N 35°36' E 140°07'0 0.0
2014-Jul-23 09:33N 35°36' E 140°07'1 1.0
2014-Jul-23 08:33N 35°35' E 140°06'3 3.2
2014-Jul-23 07:33N 35°32' E 140°06'4 4.1
2014-Jul-23 06:33N 35°30' E 140°01'1 0.7
2014-Jul-23 05:33N 35°30' E 140°01'0 0.1
2014-Jul-23 04:33N 35°30' E 140°01'0 0.0
2014-Jul-23 03:33N 35°30' E 140°01'0 0.0
2014-Jul-23 02:33N 35°30' E 140°01'0 0.0
2014-Jul-23 01:33N 35°30' E 140°01'0 0.0
2014-Jul-23 00:33N 35°30' E 140°01'1 1.1
2014-Jul-22 23:34N 35°29' E 140°01'8 8.4
2014-Jul-22 22:33N 35°36' E 140°07'0 0.0
2014-Jul-22 21:33N 35°36' E 140°07'0 0.0
2014-Jul-22 20:33N 35°36' E 140°07'0 0.0
2014-Jul-22 19:33N 35°36' E 140°07'0 0.0
2014-Jul-22 18:33N 35°36' E 140°07'0 0.0
2014-Jul-22 17:33N 35°36' E 140°07'0 0.0
2014-Jul-22 16:33N 35°36' E 140°07'0 0.0
2014-Jul-22 15:33N 35°36' E 140°07'0 0.0
2014-Jul-22 14:33N 35°36' E 140°07'0 0.0
2014-Jul-22 13:33N 35°36' E 140°07'0 0.0
2014-Jul-22 12:33N 35°36' E 140°07'0 0.0
2014-Jul-22 11:33N 35°36' E 140°07'0 0.0
2014-Jul-22 10:33N 35°36' E 140°07'0 0.0
2014-Jul-22 09:33N 35°36' E 140°07'0 0.0
2014-Jul-22 08:33N 35°36' E 140°07'0 0.0
2014-Jul-22 07:33N 35°36' E 140°07'0 0.0
2014-Jul-22 06:33N 35°36' E 140°07'0 0.0
2014-Jul-22 05:33N 35°36' E 140°07'0 0.0
2014-Jul-22 04:33N 35°36' E 140°07'8 7.7
2014-Jul-22 03:33N 35°32' E 139°58'2 2.4
2014-Jul-22 02:33N 35°31' E 139°56'0 0.2
2014-Jul-22 01:33N 35°31' E 139°56'2 2.1
2014-Jul-22 00:33N 35°29' E 139°54'1110.8
2014-Jul-21 23:33N 35°35' E 140°05'2 0.1
2014-Jul-21 07:14N 35°36' E 140°07'0 0.0
2014-Jul-21 06:33N 35°36' E 140°07'0 0.0
2014-Jul-21 05:33N 35°36' E 140°07'0 0.0
2014-Jul-21 04:33N 35°36' E 140°07'0 0.0
2014-Jul-21 03:33N 35°36' E 140°07'0 0.0
2014-Jul-21 02:33N 35°36' E 140°07'0 0.0
2014-Jul-21 01:33N 35°36' E 140°07'8 8.4
2014-Jul-21 00:33N 35°30' E 139°59'2 2.2
2014-Jul-20 23:33N 35°28' E 139°58'10 9.7
2014-Jul-20 22:33N 35°36' E 140°06'1 0.7
2014-Jul-20 21:33N 35°36' E 140°07'0 0.0
2014-Jul-20 20:33N 35°36' E 140°07'0 0.0
2014-Jul-20 19:33N 35°36' E 140°07'0 0.0
2014-Jul-20 18:34N 35°36' E 140°07'0 0.0
2014-Jul-20 17:33N 35°36' E 140°07'0 0.0
2014-Jul-20 16:33N 35°36' E 140°07'0 0.0
2014-Jul-20 15:33N 35°36' E 140°07'0 0.0
2014-Jul-20 14:33N 35°36' E 140°07'0 0.0
2014-Jul-20 13:33N 35°36' E 140°07'0 0.0
2014-Jul-20 12:33N 35°36' E 140°07'0 0.0
2014-Jul-20 11:33N 35°36' E 140°07'0 0.0
2014-Jul-20 10:33N 35°36' E 140°07'0 0.0
2014-Jul-20 09:33N 35°36' E 140°07'0 0.0
2014-Jul-20 08:33N 35°36' E 140°07'0 0.0
2014-Jul-20 07:33N 35°36' E 140°07'0 0.0
2014-Jul-20 06:33N 35°36' E 140°07'5 4.9
2014-Jul-20 05:33N 35°32' E 140°03'1 0.6
2014-Jul-20 04:33N 35°32' E 140°03'0 0.0
2014-Jul-20 03:33N 35°32' E 140°03'0 0.0
2014-Jul-20 02:33N 35°32' E 140°03'5 5.1
2014-Jul-20 01:33N 35°28' E 139°58'1 0.8
2014-Jul-20 00:33N 35°29' E 139°57'1 1.4
2014-Jul-19 23:33N 35°30' E 139°56'9 9.2
2014-Jul-19 22:33N 35°35' E 140°05'2 1.7
2014-Jul-19 21:34N 35°36' E 140°07'0 0.0
2014-Jul-19 20:34N 35°36' E 140°07'0 0.0
2014-Jul-19 19:33N 35°36' E 140°07'0 0.0
2014-Jul-19 18:33N 35°36' E 140°07'0 0.0
2014-Jul-19 17:33N 35°36' E 140°07'0 0.0
2014-Jul-19 16:33N 35°36' E 140°07'0 0.0
2014-Jul-19 15:33N 35°36' E 140°07'0 0.0
2014-Jul-19 14:33N 35°36' E 140°07'0 0.0
2014-Jul-19 13:33N 35°36' E 140°07'0 0.0
2014-Jul-19 12:33N 35°36' E 140°07'0 0.0
2014-Jul-19 11:33N 35°36' E 140°07'0 0.0
2014-Jul-19 10:33N 35°36' E 140°07'0 0.0
2014-Jul-19 09:34N 35°36' E 140°07'0 0.0
2014-Jul-19 08:33N 35°36' E 140°07'0 0.0
2014-Jul-19 07:33N 35°36' E 140°07'1 0.9
2014-Jul-19 06:33N 35°35' E 140°07'2 2.1
2014-Jul-19 05:33N 35°35' E 140°04'  

Dump ship's entire track history